Time;durP1;ratioP1;P1;durP2;ratioP2;P2;SDS_P1;SDS_P2;PMS_P1;PMS_P2;Temp;Humidity;BMP_temperature;BMP_pressure;BME280_temperature;BME280_humidity;BME280_pressure;Samples;Min_cycle;Max_cycle;Signal;HPM_P1;HPM_P2
2022/01/20 00:01:35;;;;;;;3.17;2.90;;;17.50;40.60;;;;;;4996244;28;20209;-67
2022/01/20 00:04:04;;;;;;;2.75;2.55;;;17.50;40.60;;;;;;4996742;28;20244;-70
2022/01/20 00:09:37;;;;;;;2.83;2.63;;;17.40;40.70;;;;;;4983870;28;20243;-70
2022/01/20 00:23:28;;;;;;;3.30;3.00;;;17.40;40.80;;;;;;4996430;28;20213;-70
2022/01/20 00:25:59;;;;;;;2.80;2.60;;;17.30;40.70;;;;;;4996223;28;20649;-70
2022/01/20 00:28:39;;;;;;;2.80;2.60;;;17.30;40.80;;;;;;4994951;28;20182;-71
2022/01/20 00:31:13;;;;;;;2.80;2.60;;;17.30;40.80;;;;;;4995099;28;20205;-71
2022/01/20 00:33:44;;;;;;;2.63;2.45;;;17.30;40.80;;;;;;4996090;28;20263;-71
2022/01/20 00:38:57;;;;;;;3.00;2.80;;;17.30;41.00;;;;;;5012698;28;20209;-68
2022/01/20 00:41:24;;;;;;;2.90;2.70;;;17.20;41.10;;;;;;4994351;28;20602;-70
2022/01/20 00:43:52;;;;;;;2.80;2.60;;;17.20;41.00;;;;;;4994516;28;20198;-68
2022/01/20 00:46:19;;;;;;;2.78;2.58;;;17.20;41.10;;;;;;4995988;28;20281;-69
2022/01/20 00:48:46;;;;;;;2.60;2.40;;;17.20;41.20;;;;;;4995913;28;20299;-69
2022/01/20 00:51:13;;;;;;;2.63;2.42;;;17.10;41.20;;;;;;4995240;28;20657;-68
2022/01/20 00:53:44;;;;;;;2.70;2.50;;;17.10;41.20;;;;;;4994682;28;20197;-67
2022/01/20 00:56:12;;;;;;;2.38;2.22;;;17.10;41.30;;;;;;4994394;28;20684;-67
2022/01/20 00:58:39;;;;;;;2.40;2.20;;;17.10;41.30;;;;;;4995389;28;20198;-70
2022/01/20 01:01:07;;;;;;;2.65;2.45;;;17.10;41.30;;;;;;4995399;28;20193;-67
2022/01/20 01:03:34;;;;;;;2.40;2.30;;;17.00;41.30;;;;;;4994398;28;20261;-67
2022/01/20 01:06:11;;;;;;;2.53;2.33;;;17.10;41.40;;;;;;4994236;28;20300;-69
2022/01/20 01:08:39;;;;;;;2.45;2.30;;;17.00;41.30;;;;;;4995438;28;20208;-67
2022/01/20 01:11:06;;;;;;;2.33;2.22;;;17.00;41.40;;;;;;4993922;28;20208;-70
2022/01/20 01:13:35;;;;;;;2.40;2.30;;;17.00;41.50;;;;;;4994077;28;20228;-67
2022/01/20 01:16:04;;;;;;;2.30;2.10;;;17.00;41.40;;;;;;4994114;28;20588;-69
2022/01/20 01:21:27;;;;;;;2.30;2.20;;;17.00;41.50;;;;;;5010177;28;20224;-69
2022/01/20 01:23:54;;;;;;;2.15;2.05;;;17.00;41.60;;;;;;4994055;28;20197;-69
2022/01/20 01:26:25;;;;;;;2.30;2.20;;;17.00;41.70;;;;;;4993800;28;20197;-68
2022/01/20 01:28:56;;;;;;;2.15;2.05;;;16.90;41.60;;;;;;4993828;28;20252;-68
2022/01/20 01:31:34;;;;;;;2.55;2.35;;;16.90;41.50;;;;;;4993585;28;20239;-70
2022/01/20 01:34:04;;;;;;;2.47;2.28;;;16.90;41.50;;;;;;4993512;28;20221;-68
2022/01/20 01:36:45;;;;;;;2.08;1.98;;;16.90;41.60;;;;;;4993684;28;20240;-68
2022/01/20 01:39:13;;;;;;;2.22;2.10;;;16.90;41.60;;;;;;4993615;28;20201;-70
2022/01/20 01:41:40;;;;;;;2.38;2.22;;;16.90;41.70;;;;;;4993711;28;20221;-67
2022/01/20 01:44:10;;;;;;;1.98;1.88;;;16.90;41.70;;;;;;4993984;28;20248;-68
2022/01/20 01:46:40;;;;;;;2.15;2.05;;;16.90;41.80;;;;;;4992704;28;20207;-70
2022/01/20 01:49:07;;;;;;;2.38;2.17;;;16.90;41.80;;;;;;4993678;28;20284;-67
2022/01/20 01:51:35;;;;;;;2.33;2.13;;;16.80;41.80;;;;;;4993372;28;20221;-69
2022/01/20 01:54:02;;;;;;;2.40;2.20;;;16.80;41.80;;;;;;5009589;28;20284;-69
2022/01/20 01:56:30;;;;;;;2.15;2.05;;;16.80;41.80;;;;;;5009897;28;20636;-68
2022/01/20 01:58:57;;;;;;;2.17;2.08;;;16.80;41.70;;;;;;4993175;28;20248;-68
2022/01/20 02:01:45;;;;;;;2.08;1.98;;;16.80;41.80;;;;;;4994092;28;20312;-69
2022/01/20 02:04:17;;;;;;;2.30;2.10;;;16.80;41.80;;;;;;4993120;28;20296;-68
2022/01/20 02:17:50;;;;;;;2.40;2.20;;;16.70;41.70;;;;;;4974555;28;20209;-68
2022/01/20 02:18:25;;;;;;;1.98;1.88;;;16.70;41.70;;;;;;5009872;28;20181;-70
2022/01/20 02:20:54;;;;;;;1.80;1.70;;;16.70;41.90;;;;;;4993192;28;20224;-68
2022/01/20 02:23:24;;;;;;;1.90;1.80;;;16.70;42.60;;;;;;4992748;28;20210;-67
2022/01/20 02:25:51;;;;;;;1.98;1.88;;;16.60;41.90;;;;;;4992763;28;20201;-69
2022/01/20 02:28:18;;;;;;;1.75;1.65;;;16.60;41.90;;;;;;4992919;28;20202;-69
2022/01/20 02:30:45;;;;;;;1.90;1.80;;;16.60;41.90;;;;;;4992699;28;20193;-70
2022/01/20 02:33:14;;;;;;;2.15;1.80;;;16.60;42.00;;;;;;4993936;28;20297;-68
2022/01/20 02:35:44;;;;;;;1.90;1.80;;;16.60;42.00;;;;;;4992447;28;20244;-68
2022/01/20 02:38:25;;;;;;;1.90;1.80;;;16.60;42.00;;;;;;4992545;28;20201;-68
2022/01/20 02:46:21;;;;;;;1.90;1.80;;;16.60;42.00;;;;;;5008992;28;20201;-70
2022/01/20 02:48:48;;;;;;;2.15;2.05;;;16.50;42.00;;;;;;4992566;28;20194;-68
2022/01/20 02:51:16;;;;;;;2.00;1.90;;;16.50;42.10;;;;;;4992322;28;20217;-68
2022/01/20 02:53:44;;;;;;;1.98;1.88;;;16.50;41.90;;;;;;4992182;28;20197;-70
2022/01/20 02:56:11;;;;;;;1.80;1.70;;;16.50;41.90;;;;;;4993837;28;20225;-68
2022/01/20 02:58:38;;;;;;;1.80;1.70;;;16.50;42.10;;;;;;4992218;28;20205;-66
2022/01/20 03:01:05;;;;;;;1.80;1.70;;;16.50;42.10;;;;;;4992056;28;20248;-70
2022/01/20 03:03:32;;;;;;;1.90;1.80;;;16.50;42.20;;;;;;4992454;28;20198;-68
2022/01/20 03:05:59;;;;;;;1.90;1.80;;;16.50;42.20;;;;;;4992158;28;20318;-68
2022/01/20 03:08:26;;;;;;;1.92;1.83;;;16.50;42.10;;;;;;4992342;28;20197;-67
2022/01/20 03:10:55;;;;;;;1.92;1.83;;;16.50;42.20;;;;;;4992043;28;20573;-70
2022/01/20 03:13:23;;;;;;;1.90;1.80;;;16.50;42.20;;;;;;4992087;28;20198;-70
2022/01/20 03:15:50;;;;;;;1.73;1.63;;;16.50;42.20;;;;;;4992001;28;20213;-68
2022/01/20 03:18:17;;;;;;;1.90;1.80;;;16.40;42.20;;;;;;4992153;28;20299;-67
2022/01/20 03:20:44;;;;;;;1.85;1.75;;;16.40;42.30;;;;;;4991812;28;20257;-68
2022/01/20 03:23:11;;;;;;;2.00;1.90;;;16.40;42.80;;;;;;4991813;28;20264;-68
2022/01/20 03:25:38;;;;;;;1.67;1.58;;;16.40;42.30;;;;;;4992207;28;20293;-68
2022/01/20 03:28:06;;;;;;;1.92;1.83;;;16.40;42.30;;;;;;4993164;28;20202;-70
2022/01/20 03:30:34;;;;;;;1.88;1.77;;;16.40;42.30;;;;;;4993305;28;20248;-68
2022/01/20 03:33:01;;;;;;;1.80;1.70;;;16.40;42.40;;;;;;4992111;28;20248;-68
2022/01/20 03:35:28;;;;;;;1.90;1.80;;;16.40;42.40;;;;;;4991890;28;20223;-69
2022/01/20 03:38:14;;;;;;;1.90;1.80;;;16.40;42.40;;;;;;4993281;28;20204;-68
2022/01/20 03:40:42;;;;;;;1.80;1.70;;;16.40;42.50;;;;;;4992093;28;20198;-68
2022/01/20 03:43:10;;;;;;;1.75;1.65;;;16.40;42.40;;;;;;4991923;28;20619;-69
2022/01/20 03:45:38;;;;;;;1.60;1.50;;;16.30;42.40;;;;;;4992091;28;20201;-68
2022/01/20 03:48:09;;;;;;;1.80;1.70;;;16.30;42.40;;;;;;4992205;28;20205;-68
2022/01/20 03:53:22;;;;;;;1.70;1.60;;;16.30;42.50;;;;;;4993482;28;20177;-68
2022/01/20 03:55:51;;;;;;;1.70;1.60;;;16.30;42.50;;;;;;4991922;28;20221;-68
2022/01/20 03:58:20;;;;;;;1.90;1.80;;;16.30;42.50;;;;;;4992044;28;20255;-68
2022/01/20 04:00:47;;;;;;;1.80;1.70;;;16.30;42.60;;;;;;4992948;28;20833;-68
2022/01/20 04:03:50;;;;;;;1.77;1.67;;;16.30;42.60;;;;;;4993184;28;20201;-70
2022/01/20 04:06:31;;;;;;;1.60;1.50;;;16.30;42.60;;;;;;4991988;28;20198;-69
2022/01/20 04:08:58;;;;;;;1.40;1.40;;;16.30;42.60;;;;;;4992008;28;20620;-66
2022/01/20 04:11:28;;;;;;;1.77;1.67;;;16.30;42.60;;;;;;4995154;28;20223;-67
2022/01/20 04:13:57;;;;;;;1.63;1.52;;;16.30;42.70;;;;;;4996506;28;20189;-67
2022/01/20 04:16:34;;;;;;;1.60;1.50;;;16.20;42.60;;;;;;4995321;28;20216;-69
2022/01/20 04:19:03;;;;;;;1.70;1.60;;;16.30;43.40;;;;;;4995387;28;20288;-68
2022/01/20 04:21:31;;;;;;;1.67;1.58;;;16.30;42.80;;;;;;4995155;28;20235;-70
2022/01/20 04:23:59;;;;;;;1.67;1.58;;;16.20;42.60;;;;;;4995549;28;20216;-67
2022/01/20 04:26:26;;;;;;;1.60;1.52;;;16.20;42.70;;;;;;4995184;28;20715;-68
2022/01/20 04:28:56;;;;;;;1.50;1.40;;;16.20;42.70;;;;;;4995707;28;20233;-68
2022/01/20 04:31:24;;;;;;;1.30;1.30;;;16.20;42.70;;;;;;4996545;28;20221;-68
2022/01/20 04:33:51;;;;;;;1.70;1.60;;;16.20;42.70;;;;;;4997418;28;20209;-68
2022/01/20 04:36:18;;;;;;;1.70;1.60;;;16.20;42.80;;;;;;4997705;28;20213;-68
2022/01/20 04:38:46;;;;;;;1.40;1.40;;;16.20;42.80;;;;;;4999043;28;20198;-69
2022/01/20 04:41:13;;;;;;;1.95;1.85;;;16.20;42.70;;;;;;4997729;28;20201;-68
2022/01/20 04:43:40;;;;;;;1.25;1.25;;;16.20;42.70;;;;;;4996036;28;20194;-67
2022/01/20 04:46:15;;;;;;;1.65;1.55;;;16.20;42.70;;;;;;4996822;28;20194;-67
2022/01/20 04:48:59;;;;;;;1.45;1.35;;;16.20;42.60;;;;;;4995444;28;20201;-68
2022/01/20 04:57:15;;;;;;;1.67;1.58;;;16.30;42.60;;;;;;4966038;28;20264;-66
2022/01/20 04:59:43;;;;;;;1.42;1.42;;;16.30;42.60;;;;;;4995099;28;20616;-69
2022/01/20 05:02:10;;;;;;;1.50;1.40;;;16.30;42.70;;;;;;4994169;28;20731;-68
2022/01/20 05:05:00;;;;;;;1.60;1.50;;;16.30;43.30;;;;;;4994800;28;20197;-68
2022/01/20 05:07:45;;;;;;;1.75;1.30;;;16.30;42.60;;;;;;4994692;28;20201;-67
2022/01/20 05:10:14;;;;;;;1.38;1.38;;;16.30;42.70;;;;;;4994021;28;20197;-69
2022/01/20 05:13:04;;;;;;;1.60;1.50;;;16.30;42.70;;;;;;4994367;28;20220;-69
2022/01/20 05:15:33;;;;;;;1.70;1.60;;;16.30;43.40;;;;;;4993817;28;20232;-67
2022/01/20 05:18:01;;;;;;;1.55;1.45;;;16.30;42.60;;;;;;4993942;28;20684;-68
2022/01/20 05:20:31;;;;;;;1.13;1.13;;;16.40;42.60;;;;;;4993675;28;20197;-70
2022/01/20 05:22:58;;;;;;;1.55;1.45;;;16.40;43.00;;;;;;4993809;28;20638;-71
2022/01/20 05:25:28;;;;;;;1.42;1.33;;;16.40;42.40;;;;;;4994196;28;20248;-69
2022/01/20 05:27:56;;;;;;;1.50;1.50;;;16.50;42.50;;;;;;4993901;28;20676;-70
2022/01/20 05:30:23;;;;;;;1.58;1.48;;;16.50;42.30;;;;;;4993845;28;20194;-66
2022/01/20 05:33:09;;;;;;;1.60;1.50;;;16.50;42.80;;;;;;4995119;28;20280;-68
2022/01/20 05:35:38;;;;;;;1.50;1.40;;;16.50;42.10;;;;;;4993670;28;20217;-68
2022/01/20 05:38:05;;;;;;;1.50;1.40;;;16.50;42.10;;;;;;4994470;28;20673;-68
2022/01/20 05:40:34;;;;;;;1.63;1.52;;;16.60;42.10;;;;;;4993725;28;20669;-70
2022/01/20 05:43:02;;;;;;;1.55;1.45;;;16.60;42.00;;;;;;4993475;28;20772;-68
2022/01/20 05:45:30;;;;;;;1.40;1.40;;;16.60;41.90;;;;;;4993585;28;20637;-70
2022/01/20 05:48:09;;;;;;;1.75;1.65;;;16.60;41.90;;;;;;4993500;28;20224;-68
2022/01/20 05:50:57;;;;;;;1.60;1.50;;;16.60;41.80;;;;;;4994314;28;20684;-68
2022/01/20 05:53:24;;;;;;;1.52;1.50;;;16.70;41.80;;;;;;4993091;28;20197;-69
2022/01/20 05:55:52;;;;;;;1.70;1.60;;;16.70;41.80;;;;;;4993014;28;20248;-70
2022/01/20 05:58:19;;;;;;;1.60;1.50;;;16.70;41.80;;;;;;4993050;28;20208;-70
2022/01/20 06:00:47;;;;;;;1.50;1.40;;;16.70;41.80;;;;;;4992851;28;20197;-68
2022/01/20 06:06:00;;;;;;;1.40;1.38;;;16.80;41.60;;;;;;5009404;28;20182;-67
2022/01/20 06:08:28;;;;;;;1.60;1.50;;;16.80;42.00;;;;;;4992863;28;20206;-69
2022/01/20 06:11:11;;;;;;;1.67;1.58;;;16.90;41.50;;;;;;4993131;28;20343;-67
2022/01/20 06:13:38;;;;;;;1.70;1.60;;;16.90;41.20;;;;;;4993507;28;20205;-65
2022/01/20 06:16:06;;;;;;;1.60;1.50;;;16.90;41.20;;;;;;4992743;28;20213;-65
2022/01/20 06:18:34;;;;;;;1.80;1.70;;;16.90;41.20;;;;;;4992908;28;20197;-69
2022/01/20 06:21:03;;;;;;;2.08;1.50;;;17.00;41.90;;;;;;5009045;28;20705;-68
2022/01/20 06:23:30;;;;;;;1.98;1.88;;;17.00;41.30;;;;;;4993858;28;20292;-66
2022/01/20 06:25:57;;;;;;;1.98;1.88;;;17.00;41.30;;;;;;4992680;28;20199;-67
2022/01/20 06:28:25;;;;;;;1.80;1.70;;;17.00;41.50;;;;;;4993426;28;20665;-70
2022/01/20 06:30:52;;;;;;;1.60;1.50;;;17.00;41.50;;;;;;4992671;28;20204;-69
2022/01/20 06:33:19;;;;;;;2.25;1.70;;;17.00;41.30;;;;;;4991798;28;20217;-66
2022/01/20 06:35:55;;;;;;;1.70;1.60;;;17.00;41.40;;;;;;4992260;28;20227;-67
2022/01/20 06:38:25;;;;;;;1.60;1.50;;;17.00;41.30;;;;;;4992499;28;20198;-67
2022/01/20 06:40:57;;;;;;;1.67;1.58;;;17.00;41.20;;;;;;4992156;28;20197;-69
2022/01/20 06:43:26;;;;;;;2.25;1.70;;;17.10;41.30;;;;;;4992330;28;20204;-66
2022/01/20 06:45:54;;;;;;;1.90;1.80;;;17.00;41.30;;;;;;4992119;28;20712;-67
2022/01/20 06:48:36;;;;;;;1.70;1.60;;;17.10;41.30;;;;;;4992129;28;20205;-67
2022/01/20 06:51:22;;;;;;;2.97;1.58;;;17.10;41.30;;;;;;4992541;28;20221;-69
2022/01/20 06:53:51;;;;;;;1.45;1.35;;;17.10;41.50;;;;;;4991974;28;20544;-67
2022/01/20 06:56:18;;;;;;;1.67;1.55;;;17.10;42.00;;;;;;4992030;28;20213;-66
2022/01/20 06:58:45;;;;;;;1.67;1.58;;;17.10;41.50;;;;;;4992232;28;20209;-68
2022/01/20 07:01:12;;;;;;;2.00;1.77;;;17.10;41.50;;;;;;4991726;28;20201;-68
2022/01/20 07:03:39;;;;;;;1.77;1.40;;;17.10;41.50;;;;;;4992036;28;20211;-67
2022/01/20 07:06:06;;;;;;;1.85;1.60;;;17.00;41.50;;;;;;4991728;28;20197;-66
2022/01/20 07:08:38;;;;;;;1.65;1.55;;;17.10;41.60;;;;;;4991784;28;20265;-68
2022/01/20 07:11:07;;;;;;;1.70;1.60;;;17.00;41.40;;;;;;4991877;28;20252;-70
2022/01/20 07:13:35;;;;;;;1.95;1.50;;;17.00;41.40;;;;;;4991847;28;20220;-67
2022/01/20 07:16:02;;;;;;;1.30;1.30;;;17.00;41.40;;;;;;4991776;28;20221;-68
2022/01/20 07:18:31;;;;;;;1.55;1.45;;;17.00;41.30;;;;;;4991761;28;20207;-66
2022/01/20 07:20:58;;;;;;;1.70;1.60;;;17.00;41.30;;;;;;4991773;28;20288;-70
2022/01/20 07:23:34;;;;;;;1.48;1.38;;;17.00;41.40;;;;;;4992278;28;20197;-67
2022/01/20 07:26:04;;;;;;;1.67;1.48;;;17.00;41.20;;;;;;4992070;28;20675;-69
2022/01/20 07:28:34;;;;;;;1.50;1.40;;;17.10;41.00;;;;;;4991690;28;20209;-65
2022/01/20 07:31:01;;;;;;;1.60;1.50;;;17.10;41.10;;;;;;4991690;28;20416;-65
2022/01/20 07:33:28;;;;;;;1.52;1.40;;;17.10;41.10;;;;;;4991805;28;20198;-67
2022/01/20 07:35:57;;;;;;;1.35;1.30;;;17.10;40.90;;;;;;4991476;28;20734;-67
2022/01/20 07:38:25;;;;;;;1.48;1.38;;;17.10;40.80;;;;;;4991975;28;20193;-67
2022/01/20 07:40:55;;;;;;;1.70;1.60;;;17.10;40.80;;;;;;4991409;28;20197;-66
2022/01/20 07:43:22;;;;;;;1.60;1.50;;;17.10;40.80;;;;;;4991499;28;20204;-66
2022/01/20 07:45:56;;;;;;;1.55;1.45;;;17.10;40.70;;;;;;4994197;28;20240;-66
2022/01/20 07:48:33;;;;;;;1.40;1.30;;;17.10;40.80;;;;;;4995306;28;20189;-69
2022/01/20 07:51:06;;;;;;;1.60;1.40;;;17.10;40.70;;;;;;4995286;28;20685;-66
2022/01/20 07:53:35;;;;;;;1.55;1.40;;;17.10;40.50;;;;;;4995229;28;20193;-69
2022/01/20 07:56:02;;;;;;;1.52;1.48;;;17.10;40.70;;;;;;4995066;28;20308;-67
2022/01/20 07:58:29;;;;;;;1.17;1.17;;;17.20;40.60;;;;;;4995279;28;20194;-69
2022/01/20 08:00:58;;;;;;;1.73;1.38;;;17.20;40.60;;;;;;4995117;28;20684;-67
2022/01/20 08:03:25;;;;;;;1.60;1.50;;;17.20;40.50;;;;;;5011787;28;20268;-69
2022/01/20 08:06:02;;;;;;;1.50;1.40;;;17.20;40.40;;;;;;4995484;28;20204;-67
2022/01/20 08:08:34;;;;;;;2.50;1.60;;;17.20;40.50;;;;;;4995608;28;20205;-69
2022/01/20 08:11:36;;;;;;;1.70;1.50;;;17.20;40.40;;;;;;4992113;28;20651;-66
2022/01/20 08:14:22;;;;;;;2.17;1.40;;;17.20;40.30;;;;;;4997069;28;20188;-67
2022/01/20 08:16:50;;;;;;;3.13;1.70;;;17.20;40.30;;;;;;4995044;28;20262;-67
2022/01/20 08:19:20;;;;;;;1.88;1.65;;;17.30;40.30;;;;;;4995330;28;20205;-67
2022/01/20 08:21:47;;;;;;;1.77;1.60;;;17.30;40.40;;;;;;4995157;28;20213;-67
2022/01/20 08:24:14;;;;;;;3.45;1.80;;;17.30;40.90;;;;;;4995436;28;20229;-69
2022/01/20 08:26:41;;;;;;;3.20;1.60;;;17.30;40.20;;;;;;4995588;28;20200;-67
2022/01/20 08:29:08;;;;;;;1.75;1.60;;;17.30;40.20;;;;;;4995644;28;20661;-67
2022/01/20 08:31:38;;;;;;;2.10;1.70;;;17.30;40.20;;;;;;4995076;28;20308;-68
2022/01/20 08:34:25;;;;;;;1.52;1.40;;;17.30;40.10;;;;;;4995007;28;20201;-67
2022/01/20 08:37:12;;;;;;;1.50;1.40;;;17.30;40.00;;;;;;4996284;28;20217;-67
2022/01/20 08:39:41;;;;;;;1.60;1.50;;;17.40;40.20;;;;;;4995364;28;20197;-67
2022/01/20 08:42:08;;;;;;;1.70;1.60;;;17.30;40.20;;;;;;4994971;28;20228;-68
2022/01/20 08:44:36;;;;;;;2.25;1.60;;;17.40;40.10;;;;;;4994672;28;20200;-68
2022/01/20 08:47:09;;;;;;;2.67;1.60;;;17.40;40.00;;;;;;4994675;28;20301;-67
2022/01/20 08:49:38;;;;;;;2.50;1.70;;;17.40;40.10;;;;;;5011121;28;20204;-67
2022/01/20 08:52:05;;;;;;;2.13;1.80;;;17.40;39.90;;;;;;4994447;28;20216;-69
2022/01/20 08:54:39;;;;;;;2.78;1.77;;;17.40;39.90;;;;;;4994941;28;20292;-65
2022/01/20 08:57:16;;;;;;;2.75;2.00;;;17.40;40.00;;;;;;4994158;28;20300;-67
2022/01/20 08:59:44;;;;;;;1.70;1.60;;;17.40;40.00;;;;;;4994267;28;20206;-67
2022/01/20 09:02:11;;;;;;;2.33;1.80;;;17.40;40.00;;;;;;5010355;28;20699;-67
2022/01/20 09:04:40;;;;;;;1.88;1.67;;;17.50;40.00;;;;;;4994464;28;20716;-66
2022/01/20 09:07:30;;;;;;;2.20;1.75;;;17.40;39.90;;;;;;4994348;28;20189;-67
2022/01/20 09:10:00;;;;;;;2.78;1.92;;;17.50;39.80;;;;;;4994575;28;20550;-67
2022/01/20 09:15:32;;;;;;;3.05;1.70;;;17.50;39.90;;;;;;5010643;28;20265;-68
2022/01/20 09:18:10;;;;;;;2.20;1.52;;;17.50;40.00;;;;;;4994255;28;20241;-65
2022/01/20 09:20:41;;;;;;;1.98;1.75;;;17.50;39.90;;;;;;4994646;28;20193;-67
2022/01/20 09:23:08;;;;;;;2.33;1.80;;;17.50;39.90;;;;;;5011867;28;20767;-69
2022/01/20 09:25:36;;;;;;;2.08;1.50;;;17.50;39.90;;;;;;4994197;28;20198;-68
2022/01/20 09:28:03;;;;;;;2.83;2.00;;;17.60;39.90;;;;;;4994260;28;20293;-66
2022/01/20 09:30:30;;;;;;;2.42;1.73;;;17.60;40.40;;;;;;4994155;28;20201;-69
2022/01/20 09:33:01;;;;;;;2.00;1.80;;;17.60;39.70;;;;;;4994001;28;20228;-66
2022/01/20 09:35:30;;;;;;;2.22;1.63;;;17.60;39.70;;;;;;4993736;28;20565;-66
2022/01/20 09:37:59;;;;;;;2.20;1.65;;;17.70;39.60;;;;;;4993851;28;20763;-67
2022/01/20 09:40:27;;;;;;;2.97;1.90;;;17.70;39.40;;;;;;4993681;28;20669;-69
2022/01/20 09:43:03;;;;;;;3.17;2.10;;;17.70;39.40;;;;;;4994081;28;20693;-67
2022/01/20 09:45:30;;;;;;;2.00;1.70;;;17.80;39.50;;;;;;4993636;28;20694;-66
2022/01/20 09:47:57;;;;;;;3.15;2.05;;;17.70;39.40;;;;;;4993645;28;20197;-66
2022/01/20 09:50:43;;;;;;;2.67;1.95;;;17.70;39.40;;;;;;4994798;28;20279;-67
2022/01/20 09:53:26;;;;;;;2.38;1.55;;;17.70;39.40;;;;;;4993338;28;20708;-68
2022/01/20 09:56:07;;;;;;;3.08;1.90;;;17.70;39.40;;;;;;4993430;28;20209;-67
2022/01/20 09:58:35;;;;;;;2.22;1.80;;;17.80;39.40;;;;;;4993017;28;20225;-68
2022/01/20 10:01:02;;;;;;;2.58;1.90;;;17.70;39.50;;;;;;4992785;28;20643;-66
2022/01/20 10:03:34;;;;;;;2.05;1.80;;;17.80;39.40;;;;;;4992926;28;20203;-67
2022/01/20 10:06:01;;;;;;;2.20;1.70;;;17.80;39.30;;;;;;4992972;28;20244;-67
2022/01/20 10:08:32;;;;;;;2.15;1.70;;;17.80;39.10;;;;;;4992218;28;20632;-66
2022/01/20 10:11:23;;;;;;;2.08;1.75;;;17.90;39.70;;;;;;4993980;28;20720;-68
2022/01/20 10:14:17;;;;;;;2.58;1.83;;;17.90;39.20;;;;;;4985921;28;20202;-67
2022/01/20 10:16:57;;;;;;;2.88;1.80;;;17.90;38.90;;;;;;4992748;28;20653;-67
2022/01/20 10:19:30;;;;;;;1.98;1.70;;;18.00;39.00;;;;;;4992700;28;20190;-65
2022/01/20 10:22:11;;;;;;;2.88;2.03;;;17.90;38.90;;;;;;4992736;28;20692;-68
2022/01/20 10:25:14;;;;;;;3.20;1.85;;;17.90;38.80;;;;;;4992717;28;20201;-67
2022/01/20 10:27:52;;;;;;;3.38;1.92;;;17.90;38.80;;;;;;4992662;28;20204;-67
2022/01/20 10:30:19;;;;;;;2.28;1.92;;;18.00;38.80;;;;;;4993844;28;20243;-67
2022/01/20 10:32:47;;;;;;;4.20;2.00;;;17.90;39.30;;;;;;4992382;28;20221;-67
2022/01/20 10:35:17;;;;;;;2.30;2.03;;;18.00;38.80;;;;;;4992634;28;20271;-65
2022/01/20 10:37:58;;;;;;;2.78;2.00;;;18.00;38.90;;;;;;4992260;28;20376;-67
2022/01/20 10:40:28;;;;;;;1.88;1.75;;;18.00;38.70;;;;;;4992236;28;20201;-67
2022/01/20 10:43:00;;;;;;;2.60;1.60;;;18.00;38.60;;;;;;4992488;28;20763;-66
2022/01/20 10:45:28;;;;;;;3.30;1.88;;;18.00;38.60;;;;;;4992202;28;20205;-67
2022/01/20 10:47:57;;;;;;;3.03;2.20;;;18.00;38.70;;;;;;4992157;28;20689;-69
2022/01/20 10:50:27;;;;;;;2.63;1.75;;;18.10;38.60;;;;;;4992341;28;20581;-67
2022/01/20 10:53:00;;;;;;;1.63;1.52;;;18.10;38.50;;;;;;4992199;28;20221;-65
2022/01/20 10:55:30;;;;;;;3.92;1.92;;;18.10;38.40;;;;;;4992873;28;20220;-69
2022/01/20 10:58:10;;;;;;;3.10;1.90;;;18.20;38.40;;;;;;4992255;28;20297;-65
2022/01/20 11:00:41;;;;;;;2.97;1.90;;;18.20;38.30;;;;;;4992511;28;20193;-67
2022/01/20 11:03:08;;;;;;;2.80;1.70;;;18.20;38.30;;;;;;4992354;28;20241;-68
2022/01/20 11:05:35;;;;;;;1.85;1.60;;;18.20;38.30;;;;;;4992375;28;20209;-69
2022/01/20 11:08:06;;;;;;;1.92;1.80;;;18.20;38.30;;;;;;4992612;28;20637;-67
2022/01/20 11:10:34;;;;;;;1.88;1.65;;;18.30;38.20;;;;;;4992450;28;20194;-69
2022/01/20 11:13:11;;;;;;;3.30;1.88;;;18.30;38.10;;;;;;4992568;28;20315;-68
2022/01/20 11:15:41;;;;;;;2.20;1.75;;;18.30;38.10;;;;;;4992866;28;20197;-68
2022/01/20 11:18:10;;;;;;;2.50;1.98;;;18.30;38.20;;;;;;4992661;28;20217;-69
2022/01/20 11:20:41;;;;;;;1.85;1.55;;;18.30;38.30;;;;;;4997276;28;20303;-66
2022/01/20 11:23:09;;;;;;;2.30;2.03;;;18.30;38.30;;;;;;4996716;28;20220;-68
2022/01/20 11:25:52;;;;;;;3.03;1.95;;;18.30;38.30;;;;;;4996509;28;20276;-66
2022/01/20 11:28:23;;;;;;;3.22;1.83;;;18.30;38.20;;;;;;4995310;28;20201;-69
2022/01/20 11:30:58;;;;;;;4.70;2.10;;;18.30;38.40;;;;;;4997806;28;20192;-70
2022/01/20 11:33:45;;;;;;;2.88;1.73;;;18.20;38.30;;;;;;4997094;28;20184;-69
2022/01/20 11:36:21;;;;;;;3.45;2.08;;;18.20;38.30;;;;;;4996016;28;20201;-69
2022/01/20 11:38:50;;;;;;;3.55;2.03;;;18.20;38.50;;;;;;4996795;28;20574;-67
2022/01/20 11:41:20;;;;;;;3.25;1.75;;;18.20;38.60;;;;;;4996886;28;20223;-66
2022/01/20 11:43:49;;;;;;;2.13;1.70;;;18.20;38.30;;;;;;4995602;28;20220;-66
2022/01/20 11:46:17;;;;;;;3.00;1.90;;;18.20;38.30;;;;;;4996137;28;20229;-67
2022/01/20 11:49:07;;;;;;;3.03;1.90;;;18.20;38.50;;;;;;4995720;28;20200;-67
2022/01/20 11:51:43;;;;;;;2.25;1.88;;;18.20;38.40;;;;;;4992798;28;20241;-67
2022/01/20 11:54:11;;;;;;;2.47;1.95;;;18.20;38.30;;;;;;4996715;28;20174;-65
2022/01/20 11:56:41;;;;;;;3.65;1.90;;;18.20;38.30;;;;;;4995618;28;20293;-68
2022/01/20 11:59:10;;;;;;;2.17;1.60;;;18.20;38.30;;;;;;4996636;28;20206;-69
2022/01/20 12:01:48;;;;;;;2.50;1.80;;;18.20;38.00;;;;;;4995180;28;20233;-66
2022/01/20 12:04:15;;;;;;;1.80;1.70;;;18.30;38.10;;;;;;4995399;28;20208;-65
2022/01/20 12:06:49;;;;;;;3.25;1.88;;;18.30;38.10;;;;;;4995371;28;20673;-67
2022/01/20 12:09:17;;;;;;;3.58;1.80;;;18.30;37.90;;;;;;4996334;28;20189;-65
2022/01/20 12:11:46;;;;;;;2.55;1.65;;;18.40;38.00;;;;;;4994829;28;20221;-65
2022/01/20 12:14:13;;;;;;;2.95;1.60;;;18.40;38.00;;;;;;4994876;28;20573;-67
2022/01/20 12:16:41;;;;;;;3.55;1.80;;;18.40;37.90;;;;;;4995118;28;20219;-66
2022/01/20 12:19:09;;;;;;;2.65;1.63;;;18.50;37.90;;;;;;4994640;28;20708;-67
2022/01/20 12:21:37;;;;;;;2.63;1.63;;;18.50;37.80;;;;;;4994992;28;20233;-67
2022/01/20 12:24:05;;;;;;;2.45;1.85;;;18.50;37.60;;;;;;4995066;28;20198;-69
2022/01/20 12:26:34;;;;;;;2.85;1.60;;;18.50;37.70;;;;;;4995019;28;20217;-67
2022/01/20 12:29:04;;;;;;;2.55;1.80;;;18.50;37.40;;;;;;4994927;28;20544;-69
2022/01/20 12:31:31;;;;;;;2.17;1.50;;;18.50;37.40;;;;;;4993984;28;20316;-67
2022/01/20 12:33:59;;;;;;;1.70;1.52;;;18.50;37.40;;;;;;4994457;28;20210;-67
2022/01/20 12:36:26;;;;;;;1.88;1.58;;;18.50;37.30;;;;;;5011033;28;20755;-69
2022/01/20 12:38:54;;;;;;;1.83;1.50;;;18.50;37.40;;;;;;4994633;28;20299;-66
2022/01/20 12:41:22;;;;;;;1.73;1.50;;;18.50;37.20;;;;;;4994694;28;20214;-67
2022/01/20 12:43:51;;;;;;;2.47;1.50;;;18.50;37.30;;;;;;4995861;28;20215;-67
2022/01/20 12:46:20;;;;;;;2.35;1.60;;;18.40;37.40;;;;;;4994271;28;20252;-67
2022/01/20 12:48:52;;;;;;;1.55;1.45;;;18.40;37.40;;;;;;4995205;28;20205;-69
2022/01/20 12:51:19;;;;;;;2.92;1.60;;;18.30;37.20;;;;;;4995617;28;20213;-66
2022/01/20 12:53:55;;;;;;;1.77;1.60;;;18.30;37.50;;;;;;4994438;28;20197;-67
2022/01/20 12:56:29;;;;;;;1.92;1.50;;;18.30;37.60;;;;;;4994546;28;20251;-67
2022/01/20 12:58:56;;;;;;;1.52;1.42;;;18.30;37.60;;;;;;4995578;28;20596;-69
2022/01/20 13:01:24;;;;;;;2.25;1.50;;;18.30;38.40;;;;;;4993991;28;20573;-68
2022/01/20 13:03:52;;;;;;;1.77;1.45;;;18.30;37.80;;;;;;4994184;28;20588;-68
2022/01/20 13:06:24;;;;;;;2.08;1.60;;;18.20;37.80;;;;;;4994042;28;20637;-67
2022/01/20 13:08:58;;;;;;;1.67;1.58;;;18.30;37.80;;;;;;4995402;28;20198;-67
2022/01/20 13:11:30;;;;;;;1.58;1.30;;;18.20;37.80;;;;;;4993764;28;20221;-68
2022/01/20 13:13:58;;;;;;;1.60;1.38;;;18.30;37.90;;;;;;4995164;28;20277;-66
2022/01/20 13:16:27;;;;;;;2.65;1.67;;;18.20;38.00;;;;;;4994090;28;20197;-65
2022/01/20 13:18:55;;;;;;;2.38;1.42;;;18.20;38.10;;;;;;4993687;28;20225;-69
2022/01/20 13:21:25;;;;;;;2.00;1.50;;;18.20;37.90;;;;;;4994978;28;20219;-67
2022/01/20 13:23:58;;;;;;;1.67;1.50;;;18.10;37.90;;;;;;4993961;28;20202;-68
2022/01/20 13:26:25;;;;;;;3.22;1.63;;;18.20;38.00;;;;;;4994939;28;20196;-68
2022/01/20 13:29:01;;;;;;;2.08;1.38;;;18.20;38.70;;;;;;4993611;28;20204;-66
2022/01/20 13:31:29;;;;;;;2.22;1.48;;;18.10;37.90;;;;;;4993250;28;20217;-67
2022/01/20 13:34:00;;;;;;;2.17;1.60;;;18.10;38.10;;;;;;5009707;28;20194;-68
2022/01/20 13:36:37;;;;;;;1.98;1.60;;;18.10;38.00;;;;;;4993511;28;20288;-68
2022/01/20 13:39:04;;;;;;;2.28;1.40;;;18.10;38.20;;;;;;4993486;28;20229;-67
2022/01/20 13:41:31;;;;;;;3.40;1.75;;;18.10;38.20;;;;;;4994626;28;20209;-66
2022/01/20 13:46:46;;;;;;;1.92;1.63;;;18.10;38.30;;;;;;5009769;28;20637;-66
2022/01/20 13:49:14;;;;;;;2.05;1.55;;;18.00;38.20;;;;;;4993404;28;20288;-69
2022/01/20 13:51:42;;;;;;;1.88;1.58;;;18.00;38.20;;;;;;4993329;28;20791;-67
2022/01/20 13:54:09;;;;;;;2.20;1.60;;;18.10;38.30;;;;;;4993497;28;20193;-67
2022/01/20 13:56:36;;;;;;;2.20;1.60;;;18.00;38.30;;;;;;4993197;28;20209;-67
2022/01/20 13:59:05;;;;;;;2.10;1.50;;;18.00;38.20;;;;;;4992726;28;20217;-67